54.8°F
Current conditions from King Hill
Updated every 5 minutes
 
  Friday August 1, 2014

Station Historical Data
Daily Summary for July 30, 2011 Units:  Metric    English   Both
« Previous Day
Next Day »
Daily Weekly Monthly Yearly Custom
  High: Low: Average:
Temperature: 26.4 °C 14.3 °C 19.8 °C
Dew Point: 20.1 °C 11.9 °C 16.8 °C
Humidity: 97% 58% 84%
Wind Speed: 17.7km/h 0km/h 3.7km/h
Wind Gust: 38.6km/h - -
Wind- - West
Pressure: 1015.1 hPa 1006.7 hPa -
Precipitation: 5.1 mm    
Historical Graphs
 
 
Tabular Data for July 30, 2011
Time Temperature Dew Point Pressure Wind Wind Speed Wind Gust Humidity Daily Rainfall
00:00 20.2 °C 19.5 °C 1007 hPa Calm   4.8 km/h 96% 7.1 mm
00:05 20.2 °C 19.5 °C 1007.3 hPa Calm   4.8 km/h 96% 0 mm
00:10 20.2 °C 19.5 °C 1007 hPa Calm   4.8 km/h 96% 0 mm
00:15 20.2 °C 19.6 °C 1007.3 hPa Calm   1.6 km/h 96% 0 mm
00:20 20.2 °C 19.5 °C 1007 hPa Calm     96% 0 mm
00:25 20.1 °C 19.4 °C 1007 hPa Calm     96% 0 mm
00:30 20 °C 19.3 °C 1007 hPa Calm     96% 0 mm
00:35 19.9 °C 19.3 °C 1007 hPa Calm   1.6 km/h 96% 0 mm
00:40 19.9 °C 19.3 °C 1007.3 hPa SW 3.2 km/h 6.4 km/h 96% 0 mm
00:45 20 °C 19.3 °C 1007.3 hPa Calm   6.4 km/h 96% 0 mm
00:50 20 °C 19.3 °C 1007.3 hPa Calm   4.8 km/h 96% 0 mm
00:55 20.1 °C 19.4 °C 1007.3 hPa Calm   1.6 km/h 96% 0 mm
01:00 20.1 °C 19.4 °C 1007.3 hPa Calm   1.6 km/h 96% 0 mm
01:05 20.1 °C 19.4 °C 1007.3 hPa Calm   1.6 km/h 96% 0 mm
01:10 20.2 °C 19.5 °C 1007.3 hPa Calm   1.6 km/h 96% 0 mm
01:15 20.2 °C 19.7 °C 1007.3 hPa Calm   6.4 km/h 97% 0 mm
01:20 20.1 °C 19.4 °C 1007.3 hPa Calm   6.4 km/h 96% 0 mm
01:25 20.1 °C 19.4 °C 1007.3 hPa WSW 1.6 km/h 8 km/h 96% 0 mm
01:30 20.1 °C 19.4 °C 1007.3 hPa Calm   8 km/h 96% 0 mm
01:40 20.1 °C 19.4 °C 1007.3 hPa Calm   1.6 km/h 96% 0 mm
01:45 20.2 °C 19.5 °C 1007.3 hPa Calm   1.6 km/h 96% 0 mm
01:50 20.1 °C 19.4 °C 1007.3 hPa Calm   1.6 km/h 96% 0 mm
01:55 20.1 °C 19.4 °C 1007.3 hPa Calm   1.6 km/h 96% 0 mm
02:00 20.2 °C 19.5 °C 1008 hPa WNW 6.4 km/h 17.7 km/h 96% 0 mm
02:05 19.4 °C 18.8 °C 1008.7 hPa NW 17.7 km/h 38.6 km/h 96% 1.8 mm
02:10 19 °C 18.3 °C 1008.4 hPa NW 6.4 km/h 38.6 km/h 96% 4.3 mm
02:15 18.8 °C 18.1 °C 1008 hPa NNE 3.2 km/h 24.1 km/h 96% 4.6 mm
02:20 18.7 °C 18 °C 1008 hPa NNE 1.6 km/h 20.9 km/h 96% 4.6 mm
02:25 18.6 °C 17.9 °C 1007.7 hPa NE 4.8 km/h 11.3 km/h 96% 4.8 mm
02:30 18.5 °C 17.8 °C 1007.3 hPa NNE 4.8 km/h 14.5 km/h 96% 4.8 mm
02:35 18.3 °C 17.6 °C 1007 hPa NNE 3.2 km/h 14.5 km/h 96% 4.8 mm
02:40 18.1 °C 17.4 °C 1006.7 hPa Calm   11.3 km/h 96% 4.8 mm
02:45 17.9 °C 17.3 °C 1006.7 hPa North 4.8 km/h 12.9 km/h 96% 4.8 mm
02:50 17.8 °C 17.2 °C 1007.3 hPa Calm   12.9 km/h 96% 4.8 mm
02:55 17.7 °C 17.1 °C 1007.3 hPa Calm   11.3 km/h 96% 4.8 mm
03:00 17.6 °C 16.9 °C 1007.7 hPa ENE 1.6 km/h 4.8 km/h 96% 4.8 mm
03:05 17.5 °C 16.8 °C 1007.7 hPa Calm   4.8 km/h 96% 4.8 mm
03:10 17.3 °C 16.5 °C 1007.3 hPa Calm   1.6 km/h 95% 4.8 mm
03:20 16.9 °C 16.1 °C 1007.3 hPa Calm   1.6 km/h 95% 4.8 mm
03:25 16.7 °C 15.9 °C 1007.3 hPa Calm   1.6 km/h 95% 4.8 mm
03:30 16.6 °C 15.8 °C 1007.3 hPa Calm   4.8 km/h 95% 4.8 mm
03:40 16.6 °C 15.9 °C 1007.3 hPa Calm   4.8 km/h 96% 4.8 mm
03:45 16.6 °C 15.9 °C 1007 hPa Calm   1.6 km/h 96% 4.8 mm
03:50 16.6 °C 15.9 °C 1007.3 hPa Calm   6.4 km/h 96% 4.8 mm
03:55 16.6 °C 15.9 °C 1007.7 hPa Calm   6.4 km/h 96% 4.8 mm
04:00 16.6 °C 15.9 °C 1007.7 hPa West 3.2 km/h 6.4 km/h 96% 4.8 mm
04:05 16.6 °C 15.9 °C 1008 hPa Calm   9.7 km/h 96% 4.8 mm
04:10 16.8 °C 16.2 °C 1008 hPa WNW 1.6 km/h 9.7 km/h 96% 4.8 mm
04:15 17.2 °C 16.6 °C 1008.4 hPa Calm   8 km/h 96% 4.8 mm
04:20 17.6 °C 16.9 °C 1008.4 hPa Calm   6.4 km/h 96% 4.8 mm
04:25 17.8 °C 17.3 °C 1008.4 hPa WNW 8 km/h 14.5 km/h 97% 4.8 mm
04:30 17.8 °C 17.2 °C 1008.4 hPa WNW 6.4 km/h 14.5 km/h 96% 4.8 mm
04:35 17.9 °C 17.2 °C 1008.4 hPa WNW 1.6 km/h 12.9 km/h 96% 4.8 mm
04:40 17.8 °C 17.2 °C 1008.4 hPa Calm   11.3 km/h 96% 4.8 mm
04:45 17.7 °C 17.1 °C 1008.4 hPa Calm   1.6 km/h 96% 4.8 mm
04:50 17.5 °C 16.8 °C 1008.4 hPa Calm     96% 4.8 mm
04:55 17.2 °C 16.6 °C 1008.4 hPa Calm     96% 4.8 mm
05:00 16.9 °C 16.3 °C 1008.7 hPa Calm     96% 4.8 mm
05:05 16.7 °C 16.1 °C 1008.7 hPa Calm     96% 4.8 mm
05:10 16.6 °C 15.9 °C 1009 hPa Calm     96% 4.8 mm
05:15 16.4 °C 15.7 °C 1009 hPa Calm   1.6 km/h 96% 4.8 mm
05:20 16.2 °C 15.6 °C 1009 hPa Calm   1.6 km/h 96% 4.8 mm
05:25 16.1 °C 15.5 °C 1009.4 hPa WNW 1.6 km/h 4.8 km/h 96% 4.8 mm
05:30 16.2 °C 15.6 °C 1009.4 hPa Calm   4.8 km/h 96% 4.8 mm
05:35 16.3 °C 15.7 °C 1009.7 hPa Calm     96% 5.1 mm
05:40 16.4 °C 15.7 °C 1009.7 hPa Calm     96% 5.1 mm
05:45 16.4 °C 15.7 °C 1009.7 hPa WNW 1.6 km/h 6.4 km/h 96% 5.1 mm
05:50 16.4 °C 15.7 °C 1009.7 hPa Calm   6.4 km/h 96% 5.1 mm
05:55 16.3 °C 15.7 °C 1010 hPa NW 1.6 km/h 9.7 km/h 96% 5.1 mm
06:00 16.4 °C 15.8 °C 1010 hPa NE 1.6 km/h 9.7 km/h 96% 5.1 mm
06:10 16.8 °C 16.1 °C 1010 hPa NNW 1.6 km/h 11.3 km/h 96% 5.1 mm
06:15 16.7 °C 16 °C 1010.4 hPa NW 1.6 km/h 11.3 km/h 96% 5.1 mm
06:20 16.4 °C 15.8 °C 1010.4 hPa NW 3.2 km/h 19.3 km/h 96% 5.1 mm
06:25 16.3 °C 15.7 °C 1010.4 hPa NW 6.4 km/h 19.3 km/h 96% 5.1 mm
06:35 16.1 °C 15.5 °C 1010.4 hPa NW 1.6 km/h 19.3 km/h 96% 5.1 mm
06:40 16.2 °C 15.6 °C 1010.4 hPa WNW 1.6 km/h 9.7 km/h 96% 5.1 mm
06:45 16.2 °C 15.6 °C 1010.7 hPa Calm   9.7 km/h 96% 5.1 mm
06:50 16.2 °C 15.6 °C 1010.7 hPa Calm   6.4 km/h 96% 5.1 mm
06:55 16.2 °C 15.6 °C 1010.7 hPa Calm   11.3 km/h 96% 5.1 mm
07:00 16.2 °C 15.6 °C 1010.7 hPa Calm   11.3 km/h 96% 5.1 mm
07:05 16.3 °C 15.7 °C 1010.7 hPa Calm   6.4 km/h 96% 5.1 mm
07:15 16.6 °C 15.9 °C 1011.1 hPa Calm   11.3 km/h 96% 5.1 mm
07:20 16.6 °C 15.9 °C 1011.1 hPa NW 1.6 km/h 11.3 km/h 96% 5.1 mm
07:25 16.6 °C 15.9 °C 1011.1 hPa WNW 3.2 km/h 12.9 km/h 96% 5.1 mm
07:30 16.7 °C 16 °C 1011.1 hPa NW 6.4 km/h 14.5 km/h 96% 5.1 mm
07:35 16.8 °C 16.1 °C 1011.1 hPa Calm   14.5 km/h 96% 5.1 mm
07:40 16.8 °C 16.2 °C 1011.1 hPa NNW 3.2 km/h 11.3 km/h 96% 5.1 mm
07:45 16.8 °C 16.2 °C 1011.1 hPa NW 1.6 km/h 12.9 km/h 96% 5.1 mm
07:50 16.9 °C 16.3 °C 1011.4 hPa Calm   12.9 km/h 96% 5.1 mm
07:55 17.1 °C 16.4 °C 1011.4 hPa Calm   8 km/h 96% 5.1 mm
08:00 17.2 °C 16.5 °C 1011.4 hPa Calm   1.6 km/h 96% 5.1 mm
08:05 17.3 °C 16.8 °C 1011.4 hPa Calm   1.6 km/h 97% 5.1 mm
08:10 17.5 °C 17 °C 1011.4 hPa NW 1.6 km/h 8 km/h 97% 5.1 mm
08:15 17.5 °C 16.8 °C 1011.7 hPa NW 1.6 km/h 8 km/h 96% 5.1 mm
08:20 17.6 °C 16.9 °C 1011.7 hPa WNW 3.2 km/h 12.9 km/h 96% 5.1 mm
08:25 17.6 °C 16.9 °C 1011.7 hPa NW 1.6 km/h 12.9 km/h 96% 5.1 mm
08:35 17.6 °C 16.9 °C 1011.7 hPa Calm   6.4 km/h 96% 5.1 mm
08:40 17.5 °C 16.8 °C 1011.7 hPa Calm   6.4 km/h 96% 5.1 mm
08:45 17.6 °C 16.9 °C 1011.7 hPa Calm   1.6 km/h 96% 5.1 mm
08:50 17.7 °C 17 °C 1012.1 hPa Calm   3.2 km/h 96% 5.1 mm
08:55 17.7 °C 17 °C 1012.1 hPa WNW 1.6 km/h 11.3 km/h 96% 5.1 mm
09:05 17.8 °C 17.2 °C 1012.1 hPa NW 3.2 km/h 9.7 km/h 96% 5.1 mm
09:10 17.8 °C 17.2 °C 1012.1 hPa NW 4.8 km/h 12.9 km/h 96% 5.1 mm
09:15 17.7 °C 17.1 °C 1012.1 hPa NW 1.6 km/h 12.9 km/h 96% 5.1 mm
09:20 17.7 °C 17.1 °C 1012.1 hPa NW 1.6 km/h 11.3 km/h 96% 5.1 mm
09:25 17.7 °C 17.1 °C 1012.1 hPa Calm   8 km/h 96% 5.1 mm
09:30 17.8 °C 17.1 °C 1012.4 hPa NW 6.4 km/h 12.9 km/h 96% 5.1 mm
09:35 17.7 °C 16.9 °C 1012.4 hPa Calm   12.9 km/h 95% 5.1 mm
09:40 17.8 °C 16.9 °C 1012.4 hPa Calm   11.3 km/h 95% 5.1 mm
09:45 17.9 °C 17.2 °C 1012.4 hPa Calm   6.4 km/h 96% 5.1 mm
09:55 18 °C 17.2 °C 1012.4 hPa Calm   1.6 km/h 95% 5.1 mm
10:00 18.1 °C 17.2 °C 1012.4 hPa North 1.6 km/h 8 km/h 95% 5.1 mm
10:05 18.2 °C 17.3 °C 1012.4 hPa Calm   8 km/h 95% 5.1 mm
10:10 18.2 °C 17.4 °C 1012.4 hPa Calm   4.8 km/h 95% 5.1 mm
10:15 18.3 °C 17.5 °C 1012.4 hPa Calm   4.8 km/h 95% 5.1 mm
10:20 18.4 °C 17.6 °C 1012.4 hPa Calm   4.8 km/h 95% 5.1 mm
10:25 18.5 °C 17.5 °C 1012.4 hPa NE 1.6 km/h 6.4 km/h 94% 5.1 mm
10:30 18.8 °C 17.8 °C 1012.4 hPa Calm   6.4 km/h 94% 5.1 mm
10:35 18.9 °C 17.8 °C 1012.8 hPa NNE 1.6 km/h 4.8 km/h 93% 5.1 mm
10:40 19.4 °C 18.4 °C 1012.8 hPa North 1.6 km/h 6.4 km/h 94% 5.1 mm
10:45 19.6 °C 18.4 °C 1012.8 hPa Calm   6.4 km/h 93% 5.1 mm
10:50 19.4 °C 17.6 °C 1012.8 hPa NW 3.2 km/h 9.7 km/h 89% 5.1 mm
10:55 19.3 °C 17.7 °C 1013.1 hPa NW 3.2 km/h 9.7 km/h 90% 5.1 mm
11:00 19.3 °C 17.4 °C 1013.1 hPa NW 4.8 km/h 8 km/h 89% 5.1 mm
11:05 19.2 °C 17.5 °C 1013.1 hPa Calm   11.3 km/h 90% 5.1 mm
11:10 19.2 °C 17.7 °C 1013.1 hPa Calm   11.3 km/h 91% 5.1 mm
11:15 19.2 °C 17.7 °C 1013.1 hPa Calm   9.7 km/h 91% 5.1 mm
11:20 19.2 °C 17.7 °C 1013.4 hPa Calm   4.8 km/h 91% 5.1 mm
11:25 19.2 °C 17.7 °C 1013.4 hPa NW 1.6 km/h 4.8 km/h 91% 5.1 mm
11:30 19.1 °C 17.4 °C 1013.4 hPa Calm   6.4 km/h 90% 5.1 mm
11:35 19.1 °C 17.6 °C 1013.4 hPa NW 3.2 km/h 8 km/h 91% 5.1 mm
11:40 19.1 °C 17.6 °C 1013.4 hPa Calm   8 km/h 91% 5.1 mm
11:45 19.1 °C 17.4 °C 1013.4 hPa NW 1.6 km/h 9.7 km/h 90% 5.1 mm
11:50 19.3 °C 17.8 °C 1013.4 hPa NW 3.2 km/h 9.7 km/h 91% 5.1 mm
11:55 19.5 °C 18 °C 1013.4 hPa Calm   6.4 km/h 91% 5.1 mm
12:00 19.7 °C 17.8 °C 1013.4 hPa NW 9.7 km/h 14.5 km/h 89% 5.1 mm
12:05 19.8 °C 17.9 °C 1013.8 hPa WNW 4.8 km/h 14.5 km/h 89% 5.1 mm
12:15 20 °C 17.9 °C 1013.4 hPa Calm   8 km/h 88% 5.1 mm
12:20 20.4 °C 18.5 °C 1013.4 hPa WNW 4.8 km/h 12.9 km/h 89% 5.1 mm
12:25 20.7 °C 18.2 °C 1013.8 hPa NW 1.6 km/h 12.9 km/h 86% 5.1 mm
12:30 20.9 °C 18.5 °C 1013.4 hPa NW 3.2 km/h 11.3 km/h 86% 5.1 mm
12:35 21.3 °C 19.1 °C 1013.4 hPa NW 1.6 km/h 9.7 km/h 87% 5.1 mm
12:40 21.6 °C 18.3 °C 1013.4 hPa NW 6.4 km/h 11.3 km/h 82% 5.1 mm
12:45 21.7 °C 18.9 °C 1013.4 hPa NW 1.6 km/h 11.3 km/h 84% 5.1 mm
12:50 21.9 °C 18.6 °C 1013.4 hPa NW 3.2 km/h 11.3 km/h 81% 5.1 mm
12:55 22.4 °C 19.6 °C 1013.4 hPa Calm   11.3 km/h 84% 5.1 mm
13:00 23.1 °C 19 °C 1013.4 hPa NW 8 km/h 12.9 km/h 78% 5.1 mm
13:05 23.4 °C 19.6 °C 1013.4 hPa WNW 3.2 km/h 16.1 km/h 79% 5.1 mm
13:10 23.7 °C 19.1 °C 1013.4 hPa WNW 8 km/h 16.1 km/h 75% 5.1 mm
13:15 23.5 °C 19.4 °C 1013.4 hPa NW 1.6 km/h 16.1 km/h 78% 5.1 mm
13:20 23.6 °C 19.3 °C 1013.4 hPa NNE 3.2 km/h 14.5 km/h 77% 5.1 mm
13:25 23.8 °C 19.3 °C 1013.4 hPa North 3.2 km/h 12.9 km/h 76% 5.1 mm
13:30 23.9 °C 19.2 °C 1013.4 hPa North 1.6 km/h 9.7 km/h 75% 5.1 mm
13:35 24.1 °C 18.7 °C 1013.4 hPa NW 4.8 km/h 9.7 km/h 72% 5.1 mm
13:40 23.8 °C 18.4 °C 1013.4 hPa NW 1.6 km/h 9.7 km/h 72% 5.1 mm
13:45 23.8 °C 19.5 °C 1013.8 hPa Calm   9.7 km/h 77% 5.1 mm
13:50 24.1 °C 18.8 °C 1013.8 hPa NNE 4.8 km/h 11.3 km/h 72% 5.1 mm
13:55 24.2 °C 19.3 °C 1013.8 hPa Calm   11.3 km/h 74% 5.1 mm
14:00 24.3 °C 18.9 °C 1013.8 hPa North 3.2 km/h 11.3 km/h 72% 5.1 mm
14:05 24.4 °C 19.4 °C 1013.8 hPa Calm   11.3 km/h 74% 5.1 mm
14:10 24.6 °C 19.4 °C 1013.8 hPa NW 3.2 km/h 9.7 km/h 73% 5.1 mm
14:15 24.8 °C 20.1 °C 1013.8 hPa NW 3.2 km/h 17.7 km/h 75% 5.1 mm
14:20 25.2 °C 19.1 °C 1013.8 hPa WNW 1.6 km/h 17.7 km/h 69% 5.1 mm
14:25 25.3 °C 19.5 °C 1013.8 hPa Calm   12.9 km/h 70% 5.1 mm
14:30 25.3 °C 19.2 °C 1013.8 hPa Calm   14.5 km/h 69% 5.1 mm
14:35 25.3 °C 19 °C 1013.8 hPa NE 3.2 km/h 14.5 km/h 68% 5.1 mm
14:40 25.3 °C 19 °C 1013.8 hPa NW 4.8 km/h 14.5 km/h 68% 5.1 mm
14:45 25.5 °C 19.2 °C 1013.8 hPa NW 1.6 km/h 14.5 km/h 68% 5.1 mm
14:50 25.6 °C 18.7 °C 1013.8 hPa NW 3.2 km/h 11.3 km/h 66% 5.1 mm
14:55 25.4 °C 19.1 °C 1013.4 hPa NW 3.2 km/h 12.9 km/h 68% 5.1 mm
15:00 25.3 °C 18.3 °C 1013.4 hPa NW 6.4 km/h 17.7 km/h 65% 5.1 mm
15:05 25.4 °C 18.9 °C 1013.4 hPa WNW 4.8 km/h 20.9 km/h 67% 5.1 mm
15:10 25.6 °C 19.3 °C 1013.4 hPa WNW 1.6 km/h 20.9 km/h 68% 5.1 mm
15:15 25.8 °C 18.7 °C 1013.4 hPa NW 3.2 km/h 14.5 km/h 65% 5.1 mm
15:20 26 °C 20.1 °C 1013.4 hPa Calm   11.3 km/h 70% 5.1 mm
15:25 26.2 °C 19.6 °C 1013.1 hPa Calm   11.3 km/h 67% 5.1 mm
15:30 26.4 °C 18.8 °C 1013.4 hPa NW 8 km/h 14.5 km/h 63% 5.1 mm
15:35 26.1 °C 17.5 °C 1013.4 hPa WNW 12.9 km/h 19.3 km/h 59% 5.1 mm
15:40 25.9 °C 19.1 °C 1013.1 hPa WNW 8 km/h 19.3 km/h 66% 5.1 mm
15:45 25.9 °C 19.1 °C 1013.1 hPa NNE 1.6 km/h 17.7 km/h 66% 5.1 mm
15:50 25.9 °C 18.9 °C 1013.1 hPa NW 1.6 km/h 17.7 km/h 65% 5.1 mm
15:55 25.9 °C 18.9 °C 1013.1 hPa Calm   16.1 km/h 65% 5.1 mm
16:00 26.1 °C 19.7 °C 1013.1 hPa Calm   14.5 km/h 68% 5.1 mm
16:10 26.2 °C 18.8 °C 1012.8 hPa WNW 9.7 km/h 19.3 km/h 64% 5.1 mm
16:15 25.9 °C 19.1 °C 1013.1 hPa NW 1.6 km/h 19.3 km/h 66% 5.1 mm
16:20 25.9 °C 18.9 °C 1013.1 hPa NW 1.6 km/h 16.1 km/h 65% 5.1 mm
16:25 26.1 °C 18.7 °C 1012.8 hPa WNW 3.2 km/h 11.3 km/h 64% 5.1 mm
16:30 26.3 °C 18.9 °C 1012.8 hPa NW 3.2 km/h 14.5 km/h 64% 5.1 mm
16:35 26.3 °C 19.2 °C 1012.8 hPa NE 1.6 km/h 14.5 km/h 65% 5.1 mm
16:40 26.3 °C 19 °C 1012.8 hPa NW 3.2 km/h 14.5 km/h 64% 5.1 mm
16:45 26.2 °C 19.1 °C 1012.8 hPa Calm   14.5 km/h 65% 5.1 mm
16:50 26.2 °C 18.1 °C 1012.8 hPa NW 8 km/h 17.7 km/h 61% 5.1 mm
16:55 26.1 °C 18.7 °C 1012.8 hPa NW 4.8 km/h 17.7 km/h 64% 5.1 mm
17:00 25.9 °C 17.8 °C 1012.8 hPa NW 9.7 km/h 14.5 km/h 61% 5.1 mm
17:05 25.8 °C 17.7 °C 1012.8 hPa WNW 8 km/h 17.7 km/h 61% 5.1 mm
17:10 25.7 °C 18.3 °C 1012.8 hPa NW 4.8 km/h 17.7 km/h 64% 5.1 mm
17:15 25.9 °C 18.3 °C 1012.8 hPa NW 1.6 km/h 14.5 km/h 63% 5.1 mm
17:20 25.9 °C 17.1 °C 1012.8 hPa North 1.6 km/h 14.5 km/h 58% 5.1 mm
17:25 25.9 °C 17.1 °C 1013.1 hPa NW 4.8 km/h 14.5 km/h 58% 5.1 mm
17:30 25.9 °C 17.3 °C 1012.8 hPa NW 6.4 km/h 16.1 km/h 59% 5.1 mm
17:35 25.8 °C 17.4 °C 1012.8 hPa WNW 8 km/h 16.1 km/h 60% 5.1 mm
17:40 25.7 °C 18.2 °C 1012.8 hPa ENE 1.6 km/h 16.1 km/h 63% 5.1 mm
17:45 25.8 °C 17.2 °C 1012.8 hPa NW 1.6 km/h 9.7 km/h 59% 5.1 mm
17:50 25.8 °C 16.9 °C 1012.8 hPa NW 4.8 km/h 16.1 km/h 58% 5.1 mm
17:55 25.8 °C 17.2 °C 1012.8 hPa WNW 6.4 km/h 16.1 km/h 59% 5.1 mm
18:00 25.7 °C 16.8 °C 1013.1 hPa NW 1.6 km/h 14.5 km/h 58% 5.1 mm
18:05 25.7 °C 17.4 °C 1012.8 hPa NW 1.6 km/h 12.9 km/h 60% 5.1 mm
18:10 25.7 °C 17.1 °C 1013.1 hPa NW 1.6 km/h 9.7 km/h 59% 5.1 mm
18:15 25.6 °C 17 °C 1013.1 hPa NW 4.8 km/h 12.9 km/h 59% 5.1 mm
18:20 25.4 °C 16.6 °C 1013.1 hPa NW 1.6 km/h 12.9 km/h 58% 5.1 mm
18:25 25.2 °C 16.3 °C 1013.1 hPa NW 3.2 km/h 20.9 km/h 58% 5.1 mm
18:30 25 °C 17.2 °C 1013.1 hPa Calm   20.9 km/h 62% 5.1 mm
18:35 24.7 °C 16.9 °C 1013.1 hPa NW 3.2 km/h 14.5 km/h 62% 5.1 mm
18:40 24.4 °C 16.7 °C 1013.1 hPa NW 1.6 km/h 12.9 km/h 62% 5.1 mm
18:45 24.4 °C 16.7 °C 1013.1 hPa NW 1.6 km/h 9.7 km/h 62% 5.1 mm
18:50 24.3 °C 16.8 °C 1013.1 hPa Calm   16.1 km/h 63% 5.1 mm
18:55 24.1 °C 15.3 °C 1013.1 hPa NW 3.2 km/h 16.1 km/h 58% 5.1 mm
19:00 23.9 °C 16.7 °C 1013.1 hPa Calm   14.5 km/h 64% 5.1 mm
19:05 23.6 °C 15.7 °C 1013.1 hPa Calm   9.7 km/h 61% 5.1 mm
19:10 23.4 °C 15.2 °C 1013.1 hPa Calm   9.7 km/h 60% 5.1 mm
19:15 23.3 °C 14.8 °C 1013.1 hPa NW 1.6 km/h 9.7 km/h 59% 5.1 mm
19:20 23 °C 15.1 °C 1013.1 hPa Calm   9.7 km/h 61% 5.1 mm
19:25 22.8 °C 16.1 °C 1013.1 hPa Calm   3.2 km/h 66% 5.1 mm
19:30 22.6 °C 14.9 °C 1013.1 hPa Calm   3.2 km/h 62% 5.1 mm
19:40 22.1 °C 15 °C 1013.1 hPa Calm   6.4 km/h 64% 5.1 mm
19:45 21.8 °C 15.2 °C 1013.1 hPa Calm   6.4 km/h 66% 5.1 mm
19:55 21.2 °C 15.3 °C 1013.1 hPa Calm   1.6 km/h 69% 5.1 mm
20:00 20.7 °C 14.8 °C 1013.1 hPa Calm   1.6 km/h 69% 5.1 mm
20:10 19.7 °C 14.3 °C 1013.1 hPa Calm   3.2 km/h 71% 5.1 mm
20:15 19.2 °C 14.3 °C 1013.1 hPa Calm     73% 5.1 mm
20:20 18.7 °C 14.2 °C 1013.1 hPa Calm     75% 5.1 mm
20:25 18.1 °C 13.8 °C 1013.1 hPa Calm   1.6 km/h 76% 5.1 mm
20:30 17.5 °C 13.8 °C 1013.4 hPa Calm   1.6 km/h 79% 5.1 mm
20:35 17.1 °C 13.6 °C 1013.4 hPa Calm     80% 5.1 mm
20:40 16.7 °C 13.4 °C 1013.4 hPa Calm     81% 5.1 mm
20:45 16.3 °C 13.3 °C 1013.4 hPa Calm     82% 5.1 mm
20:50 16.1 °C 13 °C 1013.8 hPa Calm     82% 5.1 mm
20:55 15.9 °C 13 °C 1013.8 hPa Calm     83% 5.1 mm
21:00 15.7 °C 12.8 °C 1013.8 hPa Calm     83% 5.1 mm
21:05 15.6 °C 12.9 °C 1013.8 hPa Calm     84% 5.1 mm
21:10 15.5 °C 13 °C 1013.8 hPa Calm     85% 5.1 mm
21:15 15.3 °C 12.8 °C 1014.1 hPa Calm     85% 5.1 mm
21:20 15.2 °C 12.7 °C 1014.1 hPa Calm     85% 5.1 mm
21:25 15 °C 12.7 °C 1014.1 hPa Calm     86% 5.1 mm
21:30 15 °C 12.7 °C 1014.1 hPa Calm     86% 5.1 mm
21:40 14.8 °C 12.3 °C 1014.1 hPa Calm     85% 5.1 mm
21:45 14.8 °C 12.3 °C 1014.4 hPa Calm     85% 5.1 mm
21:50 14.7 °C 12.2 °C 1014.4 hPa Calm   1.6 km/h 85% 5.1 mm
21:55 14.7 °C 12.3 °C 1014.4 hPa Calm   1.6 km/h 86% 5.1 mm
22:00 14.6 °C 12.3 °C 1014.4 hPa Calm   1.6 km/h 86% 5.1 mm
22:05 14.6 °C 12.2 °C 1014.4 hPa Calm   1.6 km/h 86% 5.1 mm
22:10 14.6 °C 12.2 °C 1014.8 hPa Calm     86% 5.1 mm
22:15 14.5 °C 12.2 °C 1014.8 hPa Calm     86% 5.1 mm
22:20 14.4 °C 12.1 °C 1014.8 hPa Calm     86% 5.1 mm
22:25 14.3 °C 12 °C 1014.8 hPa Calm     86% 5.1 mm
22:30 14.3 °C 11.9 °C 1014.8 hPa Calm     86% 5.1 mm
22:35 14.3 °C 12.2 °C 1014.8 hPa Calm     87% 5.1 mm
22:40 14.3 °C 12.2 °C 1014.8 hPa Calm     87% 5.1 mm
22:45 14.3 °C 12.2 °C 1014.8 hPa Calm   1.6 km/h 87% 5.1 mm
22:50 14.3 °C 12.2 °C 1014.8 hPa Calm   1.6 km/h 87% 5.1 mm
22:55 14.3 °C 12.2 °C 1014.8 hPa Calm   1.6 km/h 87% 5.1 mm
23:00 14.3 °C 12.2 °C 1014.8 hPa Calm   3.2 km/h 87% 5.1 mm
23:05 14.3 °C 12.2 °C 1014.8 hPa Calm   3.2 km/h 87% 5.1 mm
23:10 14.3 °C 12.4 °C 1014.8 hPa Calm   3.2 km/h 88% 5.1 mm
23:15 14.4 °C 12.4 °C 1014.8 hPa Calm   3.2 km/h 88% 5.1 mm
23:20 14.5 °C 12.4 °C 1014.8 hPa Calm     87% 5.1 mm
23:25 14.6 °C 12.5 °C 1014.8 hPa Calm   1.6 km/h 87% 5.1 mm
23:30 14.7 °C 12.5 °C 1015.1 hPa Calm   1.6 km/h 87% 5.1 mm
23:35 14.8 °C 12.7 °C 1015.1 hPa Calm   1.6 km/h 87% 5.1 mm
23:40 15 °C 12.7 °C 1015.1 hPa Calm   4.8 km/h 86% 5.1 mm
23:45 15 °C 12.7 °C 1014.8 hPa Calm   4.8 km/h 86% 5.1 mm
23:50 15.3 °C 12.9 °C 1015.1 hPa Calm   4.8 km/h 86% 5.1 mm
23:55 15.4 °C 12.9 °C 1014.8 hPa Calm   1.6 km/h 85% 5.1 mm
Westford Weather
Compliments of Weather Underground

 
 
Current Radar Loop:

Copyright © WestfordWeather.net 2007-2014. All rights reserved.